createdAt,value
2018-06-25T00:00:12.926Z,17.46
2018-06-25T00:02:41.963Z,17.47
2018-06-25T00:05:10.953Z,17.50
2018-06-25T00:07:39.936Z,17.56
2018-06-25T00:10:08.964Z,17.55
2018-06-25T00:12:37.993Z,17.55
2018-06-25T00:15:07.104Z,17.58
2018-06-25T00:17:36.061Z,17.59
2018-06-25T00:20:05.187Z,17.60
2018-06-25T00:22:34.151Z,17.58
2018-06-25T00:25:03.141Z,17.59
2018-06-25T00:27:32.129Z,17.55
2018-06-25T00:30:01.230Z,17.52
2018-06-25T00:32:30.277Z,17.55
2018-06-25T00:34:59.252Z,17.58
2018-06-25T00:37:28.272Z,17.60
2018-06-25T00:39:57.225Z,17.60
2018-06-25T00:42:26.288Z,17.58
2018-06-25T00:44:55.328Z,17.54
2018-06-25T00:47:24.311Z,17.52
2018-06-25T00:49:53.284Z,17.51
2018-06-25T00:52:22.260Z,17.55
2018-06-25T00:54:51.243Z,17.54
2018-06-25T00:57:20.256Z,17.49
2018-06-25T00:59:53.347Z,17.47
2018-06-25T01:02:22.756Z,17.46
2018-06-25T01:04:52.629Z,17.46
2018-06-25T01:07:22.090Z,17.48
2018-06-25T01:09:51.515Z,17.52
2018-06-25T01:12:20.524Z,17.53
2018-06-25T01:14:50.920Z,17.53
2018-06-25T01:17:19.984Z,17.54
2018-06-25T01:19:49.700Z,17.56
2018-06-25T01:22:18.692Z,17.62
2018-06-25T01:24:47.670Z,17.57
2018-06-25T01:27:16.675Z,17.57
2018-06-25T01:29:45.661Z,17.57
2018-06-25T01:32:14.641Z,17.52
2018-06-25T01:34:43.637Z,17.50
2018-06-25T01:37:12.653Z,17.35
2018-06-25T01:39:41.631Z,17.29
2018-06-25T01:42:10.608Z,17.21
2018-06-25T01:44:39.656Z,17.21
2018-06-25T01:47:08.719Z,17.20
2018-06-25T01:49:37.788Z,17.21
2018-06-25T01:52:07.399Z,17.22
2018-06-25T01:54:37.677Z,17.22
2018-06-25T01:57:07.585Z,17.18
2018-06-25T01:59:36.665Z,17.07
2018-06-25T02:02:05.715Z,17.08
2018-06-25T02:04:35.742Z,17.11
2018-06-25T02:07:04.741Z,17.12
2018-06-25T02:09:33.716Z,17.16
2018-06-25T02:12:02.696Z,17.21
2018-06-25T02:14:31.687Z,17.19
2018-06-25T02:17:00.896Z,17.17
2018-06-25T02:19:29.860Z,17.20
2018-06-25T02:21:58.827Z,17.24
2018-06-25T02:24:27.912Z,17.23
2018-06-25T02:26:56.908Z,17.25
2018-06-25T02:29:25.977Z,17.23
2018-06-25T02:31:56.847Z,17.24
2018-06-25T02:34:25.836Z,17.23
2018-06-25T02:36:55.009Z,17.18
2018-06-25T02:39:24.137Z,17.24
2018-06-25T02:41:53.800Z,17.21
2018-06-25T02:44:22.975Z,17.22
2018-06-25T02:46:53.057Z,17.21
2018-06-25T02:49:22.144Z,17.24
2018-06-25T02:51:51.213Z,17.22
2018-06-25T02:54:20.303Z,17.20
2018-06-25T02:56:49.328Z,17.16
2018-06-25T02:59:18.531Z,17.12
2018-06-25T03:01:47.493Z,17.15
2018-06-25T03:04:16.468Z,17.16
2018-06-25T03:06:46.013Z,17.18
2018-06-25T03:09:15.065Z,17.19
2018-06-25T03:11:44.020Z,17.15
2018-06-25T03:14:13.020Z,17.13
2018-06-25T03:16:42.015Z,17.10
2018-06-25T03:19:11.101Z,17.08
2018-06-25T03:21:40.324Z,17.06
2018-06-25T03:24:09.300Z,17.03
2018-06-25T03:26:38.273Z,17.02
2018-06-25T03:29:07.355Z,16.99
2018-06-25T03:31:36.347Z,17.00
2018-06-25T03:34:05.377Z,17.07
2018-06-25T03:36:34.387Z,17.13
2018-06-25T03:39:03.915Z,17.17
2018-06-25T03:41:32.867Z,17.20
2018-06-25T03:44:01.853Z,17.26
2018-06-25T03:46:30.895Z,17.27
2018-06-25T03:48:59.960Z,17.28
2018-06-25T03:51:29.920Z,17.30
2018-06-25T03:53:58.876Z,17.37
2018-06-25T03:56:27.924Z,17.43
2018-06-25T03:58:56.907Z,17.49
2018-06-25T04:01:25.948Z,17.51
2018-06-25T04:03:55.013Z,17.49
2018-06-25T04:06:24.092Z,17.51
2018-06-25T04:08:53.093Z,17.51
2018-06-25T04:11:22.096Z,17.55
2018-06-25T04:13:51.975Z,17.60
2018-06-25T04:16:20.947Z,17.65
2018-06-25T04:19:05.183Z,17.65
2018-06-25T04:21:37.380Z,17.72
2018-06-25T04:24:06.668Z,17.84
2018-06-25T04:26:35.648Z,17.87
2018-06-25T04:29:04.733Z,17.84
2018-06-25T04:31:34.039Z,17.84
2018-06-25T04:34:03.392Z,17.87
2018-06-25T04:36:32.825Z,17.87
2018-06-25T04:39:02.308Z,17.88
2018-06-25T04:41:31.408Z,17.87
2018-06-25T04:44:00.610Z,17.84
2018-06-25T04:46:29.844Z,17.80
2018-06-25T04:48:58.868Z,17.79
2018-06-25T04:51:27.828Z,17.82
2018-06-25T04:53:56.864Z,17.79
2018-06-25T04:56:25.822Z,17.82
2018-06-25T04:58:54.802Z,17.78
2018-06-25T05:01:23.838Z,17.80
2018-06-25T05:03:52.807Z,17.91
2018-06-25T05:06:21.935Z,18.04
2018-06-25T05:08:50.991Z,18.16
2018-06-25T05:11:19.972Z,18.25
2018-06-25T05:13:49.037Z,18.36
2018-06-25T05:16:18.065Z,18.47
2018-06-25T05:18:47.117Z,18.59
2018-06-25T05:21:16.104Z,18.70
2018-06-25T05:23:45.124Z,18.80
2018-06-25T05:26:14.149Z,18.89
2018-06-25T05:28:43.131Z,19.02
2018-06-25T05:31:12.101Z,19.06
2018-06-25T05:33:41.115Z,19.14
2018-06-25T05:36:10.684Z,19.31
2018-06-25T05:38:39.673Z,19.47
2018-06-25T05:41:08.725Z,19.61
2018-06-25T05:43:37.762Z,19.72
2018-06-25T05:46:06.786Z,19.79
2018-06-25T05:48:35.786Z,19.90
2018-06-25T05:51:04.861Z,20.00
2018-06-25T05:53:34.057Z,20.14
2018-06-25T05:56:03.122Z,20.31
2018-06-25T05:58:32.104Z,20.45
2018-06-25T06:01:01.181Z,20.61
2018-06-25T06:03:30.196Z,20.72
2018-06-25T06:05:59.216Z,20.78
2018-06-25T06:08:28.262Z,20.88
2018-06-25T06:10:57.269Z,20.91
2018-06-25T06:13:26.256Z,20.90
2018-06-25T06:15:55.244Z,20.94
2018-06-25T06:18:24.276Z,20.94
2018-06-25T06:20:53.344Z,21.18
2018-06-25T06:23:22.505Z,21.47
2018-06-25T06:25:51.541Z,21.63
2018-06-25T06:28:20.517Z,21.69
2018-06-25T06:30:49.550Z,21.77
2018-06-25T06:33:18.536Z,21.80
2018-06-25T06:35:47.652Z,22.04
2018-06-25T06:38:16.639Z,22.21
2018-06-25T06:40:45.668Z,22.40
2018-06-25T06:43:14.750Z,22.76
2018-06-25T06:45:43.717Z,23.20
2018-06-25T06:48:12.832Z,23.65
2018-06-25T06:50:41.866Z,23.99
2018-06-25T06:53:10.832Z,24.19
2018-06-25T06:55:40.698Z,24.37
2018-06-25T06:58:09.696Z,24.36
2018-06-25T07:00:38.788Z,24.27
2018-06-25T07:03:07.765Z,24.19
2018-06-25T07:05:36.797Z,24.11
2018-06-25T07:08:05.824Z,24.14
2018-06-25T07:10:34.876Z,24.31
2018-06-25T07:13:03.908Z,24.46
2018-06-25T07:15:32.963Z,24.52
2018-06-25T07:18:01.960Z,24.49
2018-06-25T07:20:30.985Z,24.57
2018-06-25T07:22:59.980Z,24.67
2018-06-25T07:25:29.044Z,24.86
2018-06-25T07:27:58.028Z,25.00
2018-06-25T07:30:26.991Z,25.11
2018-06-25T07:32:55.989Z,25.30
2018-06-25T07:35:25.000Z,25.42
2018-06-25T07:37:53.988Z,25.34
2018-06-25T07:40:23.021Z,25.23
2018-06-25T07:42:52.037Z,25.26
2018-06-25T07:45:21.012Z,25.30
2018-06-25T07:47:50.143Z,25.31
2018-06-25T07:50:19.192Z,25.37
2018-06-25T07:52:48.172Z,25.40
2018-06-25T07:55:17.156Z,25.40
2018-06-25T07:57:46.143Z,25.48
2018-06-25T08:00:15.157Z,25.50
2018-06-25T08:02:44.219Z,25.58
2018-06-25T08:05:13.229Z,25.62
2018-06-25T08:07:42.232Z,25.60
2018-06-25T08:10:11.312Z,25.62
2018-06-25T08:12:40.465Z,25.51
2018-06-25T08:15:09.685Z,25.51
2018-06-25T08:17:38.635Z,25.48
2018-06-25T08:20:07.677Z,25.48
2018-06-25T08:22:36.680Z,25.60
2018-06-25T08:25:05.673Z,25.61
2018-06-25T08:27:34.639Z,25.61
2018-06-25T08:30:03.784Z,25.74
2018-06-25T08:32:32.808Z,25.72
2018-06-25T08:35:01.927Z,25.75
2018-06-25T08:37:30.989Z,25.95
2018-06-25T08:40:00.059Z,26.11
2018-06-25T08:42:29.004Z,26.29
2018-06-25T08:44:58.045Z,26.49
2018-06-25T08:47:27.069Z,26.68
2018-06-25T08:49:56.124Z,26.86
2018-06-25T08:52:25.147Z,26.94
2018-06-25T08:54:54.149Z,26.85
2018-06-25T08:57:23.176Z,26.79
2018-06-25T08:59:52.176Z,26.87
2018-06-25T09:02:21.123Z,26.91
2018-06-25T09:04:50.189Z,26.85
2018-06-25T09:07:19.192Z,26.73
2018-06-25T09:09:48.239Z,26.61
2018-06-25T09:12:17.295Z,26.49
2018-06-25T09:14:46.284Z,26.57
2018-06-25T09:17:15.254Z,26.70
2018-06-25T09:19:44.253Z,26.97
2018-06-25T09:22:13.293Z,26.90
2018-06-25T09:24:42.321Z,27.07
2018-06-25T09:27:11.283Z,27.13
2018-06-25T09:29:40.268Z,27.46
2018-06-25T09:32:09.372Z,27.49
2018-06-25T09:34:43.500Z,27.21
2018-06-25T09:37:12.515Z,27.07
2018-06-25T09:39:41.491Z,26.64
2018-06-25T09:42:10.528Z,26.69
2018-06-25T09:44:39.559Z,27.08
2018-06-25T09:47:08.649Z,27.56
2018-06-25T09:49:37.712Z,27.74
2018-06-25T09:52:06.723Z,27.87
2018-06-25T09:54:35.802Z,27.69
2018-06-25T09:57:04.893Z,27.86
2018-06-25T09:59:33.881Z,28.00
2018-06-25T10:02:02.845Z,28.36
2018-06-25T10:04:31.848Z,28.53
2018-06-25T10:07:01.336Z,28.55
2018-06-25T10:09:30.404Z,28.52
2018-06-25T10:11:59.405Z,28.31
2018-06-25T10:14:28.449Z,27.96
2018-06-25T10:16:57.472Z,27.97
2018-06-25T10:19:26.504Z,27.81
2018-06-25T10:21:55.485Z,28.15
2018-06-25T10:24:24.452Z,28.39
2018-06-25T10:26:53.451Z,28.51
2018-06-25T10:29:22.456Z,28.67
2018-06-25T10:31:51.699Z,28.92
2018-06-25T10:34:20.844Z,28.93
2018-06-25T10:36:49.807Z,28.91
2018-06-25T10:39:18.875Z,29.04
2018-06-25T10:41:47.830Z,29.17
2018-06-25T10:44:16.804Z,29.41
2018-06-25T10:46:45.815Z,29.27
2018-06-25T10:49:14.815Z,29.22
2018-06-25T10:51:44.069Z,29.11
2018-06-25T10:54:13.231Z,28.75
2018-06-25T10:56:42.512Z,28.37
2018-06-25T10:59:11.504Z,28.24
2018-06-25T11:01:40.627Z,28.19
2018-06-25T11:04:09.797Z,28.17
2018-06-25T11:06:38.885Z,28.28
2018-06-25T11:09:10.328Z,28.56
2018-06-25T11:11:39.380Z,28.77
2018-06-25T11:14:08.369Z,28.99
2018-06-25T11:16:37.528Z,28.93
2018-06-25T11:19:06.575Z,28.73
2018-06-25T11:21:36.201Z,28.72
2018-06-25T11:24:05.260Z,28.74
2018-06-25T11:26:34.240Z,28.49
2018-06-25T11:29:03.204Z,28.24
2018-06-25T11:31:32.180Z,28.17
2018-06-25T11:34:01.223Z,28.10
2018-06-25T11:36:30.269Z,28.05
2018-06-25T11:38:59.298Z,27.82
2018-06-25T11:41:28.361Z,27.50
2018-06-25T11:43:57.404Z,27.22
2018-06-25T11:46:26.472Z,26.90
2018-06-25T11:48:55.429Z,26.68
2018-06-25T11:51:24.480Z,26.46
2018-06-25T11:53:53.523Z,26.35
2018-06-25T11:56:22.498Z,26.26
2018-06-25T11:58:51.537Z,26.13
2018-06-25T12:01:20.580Z,26.01
2018-06-25T12:03:49.544Z,25.94
2018-06-25T12:06:18.524Z,25.93
2018-06-25T12:08:47.552Z,25.89
2018-06-25T12:11:16.528Z,25.80
2018-06-25T12:13:45.572Z,25.72
2018-06-25T12:16:14.705Z,25.64
2018-06-25T12:18:43.783Z,25.58
2018-06-25T12:21:12.759Z,25.50
2018-06-25T12:23:41.835Z,25.50
2018-06-25T12:26:10.828Z,25.51
2018-06-25T12:28:39.888Z,25.54
2018-06-25T12:31:08.872Z,25.57
2018-06-25T12:33:37.901Z,25.60
2018-06-25T12:36:07.848Z,25.65
2018-06-25T12:38:36.881Z,25.72
2018-06-25T12:41:05.922Z,25.70
2018-06-25T12:43:34.935Z,25.67
2018-06-25T12:46:03.981Z,25.69
2018-06-25T12:48:32.960Z,25.73
2018-06-25T12:51:02.060Z,25.77
2018-06-25T12:53:31.045Z,25.85
2018-06-25T12:56:00.112Z,25.92
2018-06-25T12:58:29.163Z,26.07
2018-06-25T13:00:58.252Z,26.19
2018-06-25T13:03:27.312Z,26.23
2018-06-25T13:05:56.396Z,26.22
2018-06-25T13:08:25.445Z,26.21
2018-06-25T13:10:55.168Z,26.27
2018-06-25T13:13:24.201Z,26.38
2018-06-25T13:15:53.197Z,26.54
2018-06-25T13:18:22.302Z,26.62
2018-06-25T13:20:51.445Z,26.67
2018-06-25T13:23:20.489Z,26.73
2018-06-25T13:25:49.544Z,26.81
2018-06-25T13:28:18.548Z,26.95
2018-06-25T13:30:47.565Z,27.01
2018-06-25T13:33:16.612Z,27.06
2018-06-25T13:35:45.609Z,27.24
2018-06-25T13:38:14.623Z,27.50
2018-06-25T13:40:43.686Z,27.71
2018-06-25T13:43:12.680Z,27.80
2018-06-25T13:45:41.823Z,28.17
2018-06-25T13:48:10.730Z,28.34
2018-06-25T13:50:39.712Z,28.34
2018-06-25T13:53:08.839Z,28.36
2018-06-25T13:55:37.904Z,28.55
2018-06-25T13:58:07.125Z,28.59
2018-06-25T14:00:36.109Z,28.62
2018-06-25T14:03:05.119Z,28.73
2018-06-25T14:05:34.096Z,28.86
2018-06-25T14:08:03.066Z,29.00
2018-06-25T14:10:32.072Z,28.93
2018-06-25T14:13:01.096Z,28.99
2018-06-25T14:15:30.169Z,29.14
2018-06-25T14:17:59.216Z,29.26
2018-06-25T14:20:28.268Z,29.11
2018-06-25T14:22:57.340Z,28.96
2018-06-25T14:25:26.413Z,28.84
2018-06-25T14:28:00.546Z,28.59
2018-06-25T14:30:34.484Z,27.99
2018-06-25T14:33:03.876Z,27.54
2018-06-25T14:35:33.145Z,27.49
2018-06-25T14:38:02.186Z,27.50
2018-06-25T14:40:31.261Z,27.46
2018-06-25T14:43:00.277Z,27.70
2018-06-25T14:45:29.294Z,27.97
2018-06-25T14:47:58.359Z,28.09
2018-06-25T14:50:27.386Z,28.10
2018-06-25T14:52:56.400Z,28.15
2018-06-25T14:55:25.391Z,28.18
2018-06-25T14:57:54.375Z,28.13
2018-06-25T15:00:23.369Z,28.13
2018-06-25T15:02:52.899Z,27.87
2018-06-25T15:05:22.271Z,27.63
2018-06-25T15:07:51.371Z,27.70
2018-06-25T15:10:20.484Z,27.81
2018-06-25T15:12:49.649Z,27.86
2018-06-25T15:15:18.667Z,27.87
2018-06-25T15:17:47.677Z,27.81
2018-06-25T15:20:16.684Z,27.80
2018-06-25T15:22:45.669Z,27.71
2018-06-25T15:25:14.636Z,27.45
2018-06-25T15:27:43.681Z,27.34
2018-06-25T15:30:12.644Z,27.25
2018-06-25T15:32:41.656Z,26.93
2018-06-25T15:35:10.628Z,26.80
2018-06-25T15:37:40.015Z,26.76
2018-06-25T15:40:09.033Z,26.75
2018-06-25T15:42:38.057Z,26.85
2018-06-25T15:45:07.257Z,26.88
2018-06-25T15:47:36.383Z,26.87
2018-06-25T15:50:05.504Z,26.89
2018-06-25T15:52:34.528Z,26.95
2018-06-25T15:55:03.614Z,26.90
2018-06-25T15:57:32.700Z,26.90
2018-06-25T16:00:01.810Z,26.92
2018-06-25T16:02:30.808Z,26.97
2018-06-25T16:04:59.825Z,27.04
2018-06-25T16:07:28.791Z,27.03
2018-06-25T16:09:57.832Z,27.04
2018-06-25T16:12:26.888Z,26.96
2018-06-25T16:14:56.085Z,26.90
2018-06-25T16:17:25.072Z,26.71
2018-06-25T16:19:54.081Z,26.56
2018-06-25T16:22:23.253Z,26.42
2018-06-25T16:24:52.227Z,26.24
2018-06-25T16:27:21.224Z,26.02
2018-06-25T16:29:50.341Z,25.72
2018-06-25T16:32:19.334Z,25.46
2018-06-25T16:34:48.287Z,25.38
2018-06-25T16:37:17.685Z,25.20
2018-06-25T16:39:46.728Z,24.94
2018-06-25T16:42:15.694Z,24.82
2018-06-25T16:44:44.751Z,24.72
2018-06-25T16:47:13.817Z,24.66
2018-06-25T16:49:42.820Z,24.55
2018-06-25T16:52:11.943Z,24.41
2018-06-25T16:54:40.964Z,24.33
2018-06-25T16:57:09.936Z,24.18
2018-06-25T16:59:39.029Z,24.11
2018-06-25T17:02:08.091Z,24.06
2018-06-25T17:04:37.065Z,23.95
2018-06-25T17:07:06.437Z,23.96
2018-06-25T17:09:35.416Z,23.82
2018-06-25T17:12:04.444Z,23.62
2018-06-25T17:14:33.538Z,23.66
2018-06-25T17:17:02.538Z,23.56
2018-06-25T17:19:31.763Z,23.45
2018-06-25T17:22:00.868Z,23.36
2018-06-25T17:24:29.824Z,23.27
2018-06-25T17:26:58.817Z,23.17
2018-06-25T17:29:27.924Z,23.07
2018-06-25T17:31:56.960Z,22.97
2018-06-25T17:34:26.004Z,22.98
2018-06-25T17:36:55.056Z,22.91
2018-06-25T17:39:24.144Z,22.82
2018-06-25T17:41:53.116Z,22.82
2018-06-25T17:44:22.291Z,22.73
2018-06-25T17:46:51.284Z,22.68
2018-06-25T17:49:20.309Z,22.58
2018-06-25T17:51:49.388Z,22.43
2018-06-25T17:54:18.412Z,22.33
2018-06-25T17:56:47.552Z,22.31
2018-06-25T17:59:16.583Z,22.23
2018-06-25T18:01:45.553Z,22.12
2018-06-25T18:04:14.508Z,22.10
2018-06-25T18:06:43.981Z,22.03
2018-06-25T18:09:13.293Z,21.87
2018-06-25T18:11:42.304Z,21.80
2018-06-25T18:14:11.370Z,21.69
2018-06-25T18:16:40.336Z,21.62
2018-06-25T18:19:09.363Z,21.58
2018-06-25T18:21:38.517Z,21.46
2018-06-25T18:24:07.556Z,21.39
2018-06-25T18:26:36.539Z,21.37
2018-06-25T18:29:05.584Z,21.34
2018-06-25T18:31:34.692Z,21.23
2018-06-25T18:34:03.797Z,21.12
2018-06-25T18:36:32.768Z,21.09
2018-06-25T18:39:01.744Z,21.01
2018-06-25T18:41:30.796Z,20.89
2018-06-25T18:43:59.900Z,20.81
2018-06-25T18:46:28.933Z,20.70
2018-06-25T18:48:57.887Z,20.67
2018-06-25T18:51:26.900Z,20.60
2018-06-25T18:53:56.163Z,20.56
2018-06-25T18:56:25.151Z,20.50
2018-06-25T18:58:54.187Z,20.46
2018-06-25T19:01:23.261Z,20.48
2018-06-25T19:03:52.288Z,20.57
2018-06-25T19:06:21.343Z,20.65
2018-06-25T19:08:50.362Z,20.82
2018-06-25T19:11:19.335Z,20.80
2018-06-25T19:13:48.472Z,20.86
2018-06-25T19:16:17.435Z,20.85
2018-06-25T19:18:46.488Z,20.83
2018-06-25T19:21:15.625Z,20.82
2018-06-25T19:23:44.721Z,20.78
2018-06-25T19:26:13.648Z,20.67
2018-06-25T19:28:42.770Z,20.58
2018-06-25T19:31:11.760Z,20.46
2018-06-25T19:33:40.795Z,20.40
2018-06-25T19:36:09.880Z,20.34
2018-06-25T19:38:38.936Z,20.27
2018-06-25T19:41:08.164Z,20.14
2018-06-25T19:43:37.128Z,20.16
2018-06-25T19:46:06.204Z,20.14
2018-06-25T19:48:35.172Z,20.08
2018-06-25T19:51:04.279Z,20.00
2018-06-25T19:53:33.309Z,19.88
2018-06-25T19:56:02.260Z,19.83
2018-06-25T19:58:31.257Z,19.78
2018-06-25T20:01:00.260Z,19.71
2018-06-25T20:03:29.285Z,19.68
2018-06-25T20:05:58.496Z,19.53
2018-06-25T20:08:27.528Z,19.51
2018-06-25T20:10:56.508Z,19.50
2018-06-25T20:13:25.556Z,19.48
2018-06-25T20:15:54.629Z,19.49
2018-06-25T20:18:23.692Z,19.53
2018-06-25T20:20:52.689Z,19.51
2018-06-25T20:23:21.739Z,19.40
2018-06-25T20:25:50.798Z,19.32
2018-06-25T20:28:20.073Z,19.23
2018-06-25T20:30:49.161Z,19.14
2018-06-25T20:33:18.220Z,19.11
2018-06-25T20:35:47.225Z,19.09
2018-06-25T20:38:16.226Z,19.04
2018-06-25T20:40:45.223Z,19.06
2018-06-25T20:43:14.328Z,18.99
2018-06-25T20:45:43.349Z,18.98
2018-06-25T20:48:12.325Z,19.00
2018-06-25T20:50:41.361Z,19.02
2018-06-25T20:53:10.440Z,19.01
2018-06-25T20:55:39.521Z,18.93
2018-06-25T20:58:08.625Z,18.90
2018-06-25T21:00:37.640Z,18.78
2018-06-25T21:03:06.712Z,18.75
2018-06-25T21:05:35.745Z,18.72
2018-06-25T21:08:05.018Z,18.71
2018-06-25T21:10:34.030Z,18.69
2018-06-25T21:13:03.085Z,18.65
2018-06-25T21:15:32.095Z,18.66
2018-06-25T21:18:01.092Z,18.59
2018-06-25T21:20:30.155Z,18.52
2018-06-25T21:22:59.211Z,18.52
2018-06-25T21:25:28.335Z,18.38
2018-06-25T21:27:57.368Z,18.29
2018-06-25T21:30:26.368Z,18.22
2018-06-25T21:32:55.462Z,18.20
2018-06-25T21:35:24.428Z,18.17
2018-06-25T21:37:53.376Z,18.12
2018-06-25T21:40:22.361Z,18.09
2018-06-25T21:42:51.317Z,18.05
2018-06-25T21:45:20.369Z,17.99
2018-06-25T21:47:49.400Z,18.04
2018-06-25T21:50:18.824Z,18.08
2018-06-25T21:52:47.889Z,18.06
2018-06-25T21:55:16.909Z,18.05
2018-06-25T21:57:45.947Z,18.03
2018-06-25T22:00:15.019Z,17.98
2018-06-25T22:02:44.053Z,18.00
2018-06-25T22:05:13.028Z,17.98
2018-06-25T22:07:42.037Z,17.92
2018-06-25T22:10:11.080Z,17.92
2018-06-25T22:12:40.067Z,17.86
2018-06-25T22:15:09.066Z,17.80
2018-06-25T22:17:38.047Z,17.72
2018-06-25T22:20:07.020Z,17.70
2018-06-25T22:22:36.133Z,17.64
2018-06-25T22:25:05.248Z,17.59
2018-06-25T22:27:34.220Z,17.55
2018-06-25T22:30:03.207Z,17.55
2018-06-25T22:32:32.208Z,17.46
2018-06-25T22:35:01.261Z,17.45
2018-06-25T22:37:30.219Z,17.39
2018-06-25T22:39:59.241Z,17.33
2018-06-25T22:42:30.218Z,17.30
2018-06-25T22:44:59.203Z,17.23
2018-06-25T22:47:28.237Z,17.17
2018-06-25T22:49:57.260Z,17.13
2018-06-25T22:52:26.368Z,17.17
2018-06-25T22:54:55.413Z,17.20
2018-06-25T22:57:24.405Z,17.19
2018-06-25T22:59:53.444Z,17.18
2018-06-25T23:02:22.496Z,17.18
2018-06-25T23:04:51.471Z,17.17
2018-06-25T23:07:20.581Z,17.18
2018-06-25T23:09:49.536Z,17.17
2018-06-25T23:12:18.885Z,17.15
2018-06-25T23:14:47.840Z,17.15
2018-06-25T23:17:16.827Z,17.10
2018-06-25T23:19:45.804Z,17.05
2018-06-25T23:22:14.865Z,16.93
2018-06-25T23:24:43.907Z,16.85
2018-06-25T23:27:12.884Z,16.80
2018-06-25T23:29:41.841Z,16.72
2018-06-25T23:32:10.891Z,16.70
2018-06-25T23:34:39.892Z,16.62
2018-06-25T23:37:08.997Z,16.46
2018-06-25T23:39:37.942Z,16.44
2018-06-25T23:42:06.943Z,16.31
2018-06-25T23:44:35.940Z,16.27
2018-06-25T23:47:04.991Z,16.20
2018-06-25T23:49:34.115Z,16.15
2018-06-25T23:52:03.156Z,16.06
2018-06-25T23:54:32.168Z,16.02
2018-06-25T23:57:01.156Z,15.96
2018-06-25T23:59:30.529Z,16.01
